Time;durP1;ratioP1;P1;durP2;ratioP2;P2;SDS_P1;SDS_P2;PMS_P1;PMS_P2;Temp;Humidity;BMP_temperature;BMP_pressure;BME280_temperature;BME280_humidity;BME280_pressure;Samples;Min_cycle;Max_cycle;Signal;HPM_P1;HPM_P2
2021/03/11 00:00:56;;;;;;;28.53;18.90;;;4.10;59.90;;;;;;5029686;28;20459;-78
2021/03/11 00:03:23;;;;;;;29.50;18.87;;;4.20;60.10;;;;;;5031560;28;20514;-78
2021/03/11 00:05:50;;;;;;;26.27;18.40;;;4.20;60.00;;;;;;5027612;28;20572;-78
2021/03/11 00:08:17;;;;;;;27.27;18.17;;;4.30;60.10;;;;;;5031254;28;20898;-78
2021/03/11 00:10:44;;;;;;;25.40;17.87;;;4.30;60.30;;;;;;5029257;28;20447;-79
2021/03/11 00:13:11;;;;;;;29.00;19.20;;;4.20;60.30;;;;;;5029308;28;20522;-78
2021/03/11 00:15:39;;;;;;;26.67;17.97;;;4.30;60.20;;;;;;5029564;28;20474;-77
2021/03/11 00:18:07;;;;;;;26.87;19.50;;;4.30;60.40;;;;;;5027420;28;20450;-79
2021/03/11 00:20:34;;;;;;;29.70;18.90;;;4.40;60.40;;;;;;5032278;28;20459;-77
2021/03/11 00:23:01;;;;;;;30.30;19.70;;;4.30;60.10;;;;;;5034119;28;20538;-78
2021/03/11 00:25:29;;;;;;;25.20;18.63;;;4.30;60.10;;;;;;5028468;28;20547;-78
2021/03/11 00:27:57;;;;;;;28.17;19.47;;;4.40;60.40;;;;;;5031155;28;20466;-81
2021/03/11 00:30:26;;;;;;;26.10;18.90;;;4.40;60.50;;;;;;5035409;28;20475;-79
2021/03/11 00:32:53;;;;;;;28.27;19.00;;;4.40;60.30;;;;;;5032596;28;20470;-78
2021/03/11 00:35:20;;;;;;;28.23;18.37;;;4.40;60.30;;;;;;5022271;28;20637;-77
2021/03/11 00:37:48;;;;;;;30.37;18.87;;;4.50;60.90;;;;;;5027447;28;20455;-80
2021/03/11 00:40:16;;;;;;;27.67;19.77;;;4.50;60.40;;;;;;5042765;28;20450;-81
2021/03/11 00:42:43;;;;;;;27.37;18.30;;;4.50;60.50;;;;;;5034904;28;20762;-77
2021/03/11 00:45:10;;;;;;;27.43;19.07;;;4.50;60.90;;;;;;5025859;28;20526;-79
2021/03/11 00:47:39;;;;;;;28.67;19.70;;;4.50;60.90;;;;;;5025680;28;20562;-78
2021/03/11 00:50:08;;;;;;;28.47;19.53;;;4.50;60.60;;;;;;5030875;28;20460;-79
2021/03/11 00:52:34;;;;;;;30.30;20.17;;;4.50;60.70;;;;;;5024075;28;20484;-79
2021/03/11 00:55:01;;;;;;;30.93;19.90;;;4.50;61.00;;;;;;5025014;28;20483;-79
2021/03/11 00:57:27;;;;;;;28.07;19.37;;;4.60;61.00;;;;;;5038932;28;20483;-78
2021/03/11 00:59:53;;;;;;;29.70;19.60;;;4.60;60.50;;;;;;5030113;28;20530;-78
2021/03/11 01:02:20;;;;;;;26.87;18.77;;;4.60;60.80;;;;;;5027727;28;20461;-80
2021/03/11 01:04:47;;;;;;;31.13;20.47;;;4.60;60.70;;;;;;5026842;28;20463;-78
2021/03/11 01:07:16;;;;;;;27.60;19.63;;;4.60;60.90;;;;;;5023257;28;20500;-77
2021/03/11 01:09:43;;;;;;;28.23;19.33;;;4.70;60.90;;;;;;5030047;28;20457;-79
2021/03/11 01:12:12;;;;;;;27.90;18.17;;;4.70;60.80;;;;;;5029728;28;20479;-78
2021/03/11 01:14:38;;;;;;;24.07;18.10;;;4.70;60.70;;;;;;5024425;28;20532;-78
2021/03/11 01:17:05;;;;;;;26.50;19.00;;;4.70;60.60;;;;;;5021441;28;20535;-78
2021/03/11 01:19:31;;;;;;;32.57;19.40;;;4.70;60.50;;;;;;5032281;28;20517;-78
2021/03/11 01:21:58;;;;;;;28.63;19.57;;;4.70;60.40;;;;;;5026280;28;20450;-79
2021/03/11 01:24:25;;;;;;;27.30;18.90;;;4.70;60.30;;;;;;5030421;28;20507;-79
2021/03/11 01:26:51;;;;;;;28.20;18.60;;;4.80;60.10;;;;;;5028961;28;20924;-78
2021/03/11 01:29:17;;;;;;;28.20;18.70;;;4.80;60.10;;;;;;5028147;28;20525;-78
2021/03/11 01:31:44;;;;;;;25.57;19.17;;;4.90;59.80;;;;;;5028924;28;20459;-80
2021/03/11 01:34:10;;;;;;;24.57;17.27;;;4.90;59.90;;;;;;5025635;28;20459;-78
2021/03/11 01:36:36;;;;;;;28.93;19.03;;;4.90;59.50;;;;;;5024342;28;20489;-78
2021/03/11 01:39:05;;;;;;;25.70;19.20;;;4.90;59.70;;;;;;5026960;28;20879;-78
2021/03/11 01:41:31;;;;;;;23.63;17.60;;;5.00;59.60;;;;;;5024406;28;20449;-78
2021/03/11 01:43:58;;;;;;;24.53;18.07;;;5.00;59.40;;;;;;5021956;28;20571;-78
2021/03/11 01:46:25;;;;;;;22.77;17.10;;;5.00;59.30;;;;;;5026685;28;20460;-78
2021/03/11 01:48:52;;;;;;;24.43;17.23;;;5.10;59.30;;;;;;5027499;28;20458;-77
2021/03/11 01:51:37;;;;;;;;;;;;;;;;;;;;;
2021/03/11 01:54:04;;;;;;;24.63;16.60;;;5.10;59.40;;;;;;5026760;28;20480;-78
2021/03/11 01:56:31;;;;;;;20.40;15.97;;;5.20;59.10;;;;;;5026663;28;20906;-78
2021/03/11 01:58:58;;;;;;;23.47;17.00;;;5.20;59.30;;;;;;5031877;28;20460;-80
2021/03/11 02:01:24;;;;;;;27.97;16.70;;;5.20;59.00;;;;;;5026568;28;20863;-78
2021/03/11 02:03:50;;;;;;;26.27;17.27;;;5.20;59.10;;;;;;5029455;28;20452;-81
2021/03/11 02:06:17;;;;;;;23.30;16.47;;;5.30;59.20;;;;;;5024625;28;20464;-77
2021/03/11 02:08:43;;;;;;;21.00;16.17;;;5.30;59.00;;;;;;5029101;28;20461;-78
2021/03/11 02:11:15;;;;;;;24.47;16.47;;;5.30;59.00;;;;;;5027217;28;20465;-80
2021/03/11 02:13:46;;;;;;;25.20;17.20;;;5.30;59.00;;;;;;5018209;28;20497;-77
2021/03/11 02:16:19;;;;;;;25.90;17.67;;;5.30;58.80;;;;;;5017733;28;20470;-77
2021/03/11 02:18:50;;;;;;;23.30;16.83;;;5.20;58.90;;;;;;5023838;28;20471;-81
2021/03/11 02:21:21;;;;;;;21.23;16.33;;;5.20;58.80;;;;;;5024528;28;21304;-79
2021/03/11 02:24:32;;;;;;;24.10;16.87;;;5.20;58.80;;;;;;5024889;28;20478;-77
2021/03/11 02:27:32;;;;;;;24.13;17.03;;;5.30;58.90;;;;;;5006594;28;20466;-78
2021/03/11 02:30:01;;;;;;;23.40;16.40;;;5.30;58.90;;;;;;5022031;28;20489;-78
2021/03/11 02:32:28;;;;;;;24.97;17.47;;;5.20;58.60;;;;;;5035039;28;20506;-79
2021/03/11 02:34:58;;;;;;;22.70;15.67;;;5.30;58.90;;;;;;5049343;28;20459;-80
2021/03/11 02:37:30;;;;;;;22.10;16.90;;;5.30;58.90;;;;;;5046166;28;20440;-79
2021/03/11 02:39:58;;;;;;;20.50;15.87;;;5.30;59.00;;;;;;5047213;28;20453;-80
2021/03/11 02:42:26;;;;;;;22.97;16.70;;;5.30;58.70;;;;;;5033700;28;20483;-78
2021/03/11 02:44:54;;;;;;;22.00;16.60;;;5.30;58.90;;;;;;5031671;28;20453;-77
2021/03/11 02:47:23;;;;;;;21.73;16.63;;;5.20;58.80;;;;;;5027225;28;20483;-79
2021/03/11 02:49:50;;;;;;;21.60;16.07;;;5.30;58.90;;;;;;5031432;28;20440;-77
2021/03/11 02:52:18;;;;;;;22.80;16.43;;;5.30;58.70;;;;;;5035397;28;20547;-78
2021/03/11 02:54:46;;;;;;;23.63;16.27;;;5.30;58.70;;;;;;5032487;28;20504;-77
2021/03/11 02:57:15;;;;;;;21.70;16.23;;;5.40;58.70;;;;;;5030238;28;20528;-78
2021/03/11 02:59:43;;;;;;;21.07;15.37;;;5.40;58.30;;;;;;5033528;28;20464;-78
2021/03/11 03:02:10;;;;;;;22.43;16.97;;;5.40;58.30;;;;;;5032778;28;20610;-79
2021/03/11 03:04:39;;;;;;;19.40;15.33;;;5.40;58.30;;;;;;5036893;28;20480;-78
2021/03/11 03:07:07;;;;;;;23.93;17.00;;;5.50;58.50;;;;;;5024163;28;20864;-78
2021/03/11 03:09:34;;;;;;;22.23;15.70;;;5.50;58.10;;;;;;5029575;28;20446;-78
2021/03/11 03:12:02;;;;;;;22.63;16.90;;;5.40;58.20;;;;;;5026331;28;20631;-78
2021/03/11 03:14:28;;;;;;;20.83;15.33;;;5.50;58.20;;;;;;5027280;28;20571;-79
2021/03/11 03:16:56;;;;;;;24.10;16.40;;;5.50;58.10;;;;;;5021824;28;20492;-77
2021/03/11 03:19:23;;;;;;;21.03;14.80;;;5.50;57.90;;;;;;5023519;28;20489;-80
2021/03/11 03:21:51;;;;;;;19.80;15.33;;;5.50;57.80;;;;;;5029691;28;20453;-78
2021/03/11 03:24:18;;;;;;;19.37;15.03;;;5.50;58.30;;;;;;5039209;28;21042;-77
2021/03/11 03:26:45;;;;;;;19.57;15.20;;;5.50;58.10;;;;;;5032493;28;20530;-78
2021/03/11 03:29:12;;;;;;;20.90;15.23;;;5.50;58.00;;;;;;5032689;28;21132;-80
2021/03/11 03:31:38;;;;;;;18.83;14.50;;;5.50;58.30;;;;;;5048476;28;20448;-78
2021/03/11 03:34:05;;;;;;;21.73;15.90;;;5.50;58.00;;;;;;5035966;28;21195;-76
2021/03/11 03:36:31;;;;;;;21.40;15.67;;;5.50;57.80;;;;;;5032189;28;20567;-78
2021/03/11 03:38:59;;;;;;;22.53;16.93;;;5.50;58.10;;;;;;5027877;28;20535;-77
2021/03/11 03:41:27;;;;;;;23.27;15.60;;;5.50;58.60;;;;;;5026121;28;20549;-77
2021/03/11 03:43:54;;;;;;;19.70;15.70;;;5.50;58.70;;;;;;5024809;28;20522;-80
2021/03/11 03:46:24;;;;;;;19.70;15.20;;;5.50;59.30;;;;;;5029013;28;20524;-77
2021/03/11 03:48:53;;;;;;;19.03;14.83;;;5.60;59.40;;;;;;5031796;28;20464;-77
2021/03/11 03:51:24;;;;;;;21.60;15.73;;;5.60;59.30;;;;;;5028125;28;20483;-78
2021/03/11 03:53:52;;;;;;;23.80;15.63;;;5.70;59.90;;;;;;5029063;28;20484;-78
2021/03/11 03:56:24;;;;;;;21.43;17.70;;;5.50;59.80;;;;;;5025046;28;20964;-78
2021/03/11 03:58:54;;;;;;;19.37;15.67;;;5.50;60.20;;;;;;5021215;28;20444;-78
2021/03/11 04:01:22;;;;;;;21.60;15.47;;;5.50;60.40;;;;;;5029789;28;20463;-78
2021/03/11 04:03:50;;;;;;;21.43;15.57;;;5.50;60.70;;;;;;5030724;28;20458;-80
2021/03/11 04:06:16;;;;;;;22.93;15.50;;;6.20;61.50;;;;;;5030099;28;20455;-78
2021/03/11 04:08:46;;;;;;;21.67;16.40;;;5.50;61.10;;;;;;5031915;28;20980;-79
2021/03/11 04:11:13;;;;;;;22.17;15.43;;;5.50;61.30;;;;;;5026843;28;20452;-78
2021/03/11 04:13:41;;;;;;;21.20;15.00;;;5.50;61.30;;;;;;5029351;28;20457;-80
2021/03/11 04:16:08;;;;;;;20.00;16.07;;;5.40;61.50;;;;;;5027594;28;20479;-80
2021/03/11 04:18:36;;;;;;;21.50;15.60;;;5.40;61.70;;;;;;5032052;28;20642;-79
2021/03/11 04:21:05;;;;;;;20.60;15.53;;;5.40;62.10;;;;;;5030087;28;21321;-79
2021/03/11 04:23:32;;;;;;;19.27;15.07;;;5.40;61.90;;;;;;5030540;28;20477;-79
2021/03/11 04:25:59;;;;;;;21.90;15.83;;;5.40;62.00;;;;;;5026421;28;20541;-77
2021/03/11 04:28:25;;;;;;;21.03;15.50;;;5.40;62.10;;;;;;5029531;28;20444;-78
2021/03/11 04:30:53;;;;;;;20.10;16.80;;;5.40;62.80;;;;;;5028494;28;20460;-78
2021/03/11 04:33:19;;;;;;;21.20;15.50;;;5.50;62.80;;;;;;5031801;28;20546;-77
2021/03/11 04:35:46;;;;;;;23.20;16.93;;;5.40;62.90;;;;;;5024873;28;20507;-78
2021/03/11 04:38:14;;;;;;;19.80;15.87;;;5.40;62.80;;;;;;5027237;28;20823;-78
2021/03/11 04:40:41;;;;;;;19.57;15.50;;;5.40;62.40;;;;;;5024811;28;20996;-78
2021/03/11 04:43:07;;;;;;;18.43;15.57;;;5.40;62.60;;;;;;5024214;28;20442;-80
2021/03/11 04:45:34;;;;;;;19.43;15.60;;;5.40;63.20;;;;;;5021111;28;20476;-78
2021/03/11 04:48:03;;;;;;;23.33;17.30;;;5.40;62.70;;;;;;5021705;28;20958;-78
2021/03/11 04:50:33;;;;;;;23.63;17.20;;;5.40;62.70;;;;;;5026993;28;20449;-80
2021/03/11 04:53:00;;;;;;;23.77;16.67;;;5.40;63.00;;;;;;5020555;28;20452;-79
2021/03/11 04:55:27;;;;;;;20.40;15.07;;;5.30;62.50;;;;;;5016416;28;20459;-79
2021/03/11 04:57:53;;;;;;;22.17;16.30;;;5.30;62.60;;;;;;5027212;28;20970;-79
2021/03/11 05:00:21;;;;;;;20.93;17.50;;;5.20;62.30;;;;;;5025135;28;20475;-78
2021/03/11 05:02:48;;;;;;;24.70;16.57;;;5.40;62.50;;;;;;5024523;28;20551;-78
2021/03/11 05:05:26;;;;;;;22.90;16.27;;;5.40;62.70;;;;;;5023651;28;20486;-78
2021/03/11 05:07:52;;;;;;;24.70;16.77;;;5.40;62.60;;;;;;5023043;28;20626;-78
2021/03/11 05:10:18;;;;;;;23.43;17.27;;;5.40;62.60;;;;;;5025171;28;20998;-79
2021/03/11 05:12:45;;;;;;;20.23;16.57;;;5.30;62.90;;;;;;5021060;28;20608;-79
2021/03/11 05:15:12;;;;;;;23.77;17.30;;;5.30;63.50;;;;;;5029564;28;20544;-79
2021/03/11 05:17:39;;;;;;;25.93;17.70;;;5.30;63.40;;;;;;5027625;28;20946;-78
2021/03/11 05:20:06;;;;;;;22.97;17.10;;;5.30;63.60;;;;;;5023501;28;20803;-79
2021/03/11 05:22:34;;;;;;;25.90;20.23;;;5.30;63.50;;;;;;5021393;28;20514;-79
2021/03/11 05:25:00;;;;;;;21.63;16.53;;;5.30;64.70;;;;;;5021966;28;20679;-77
2021/03/11 05:27:26;;;;;;;22.50;16.87;;;5.30;63.90;;;;;;5029790;28;20510;-78
2021/03/11 05:29:55;;;;;;;20.40;15.80;;;5.30;64.20;;;;;;5027804;28;20455;-79
2021/03/11 05:32:21;;;;;;;24.13;17.70;;;5.30;64.00;;;;;;5028757;28;20457;-81
2021/03/11 05:34:47;;;;;;;22.27;17.20;;;5.30;64.30;;;;;;5030762;28;20475;-77
2021/03/11 05:37:14;;;;;;;24.20;17.83;;;5.30;64.10;;;;;;5022221;28;20451;-79
2021/03/11 05:39:41;;;;;;;24.03;16.30;;;5.30;64.40;;;;;;5027768;28;20456;-79
2021/03/11 05:42:10;;;;;;;20.80;16.20;;;5.30;64.10;;;;;;5029517;28;20453;-77
2021/03/11 05:44:38;;;;;;;19.40;16.83;;;5.30;64.00;;;;;;5027987;28;20539;-78
2021/03/11 05:47:06;;;;;;;21.37;16.97;;;5.30;64.20;;;;;;5026942;28;20445;-78
2021/03/11 05:49:34;;;;;;;23.60;16.90;;;5.30;64.60;;;;;;5027705;28;20449;-82
2021/03/11 05:52:01;;;;;;;22.03;16.57;;;5.30;64.50;;;;;;5025846;28;20534;-78
2021/03/11 05:54:28;;;;;;;21.40;15.40;;;5.30;64.60;;;;;;5028658;28;20460;-77
2021/03/11 05:56:56;;;;;;;20.00;16.00;;;5.30;64.60;;;;;;5026070;28;21029;-78
2021/03/11 05:59:23;;;;;;;21.50;15.97;;;5.30;64.60;;;;;;5023681;28;20465;-80
2021/03/11 06:01:51;;;;;;;23.03;16.47;;;5.30;64.80;;;;;;5029554;28;20959;-78
2021/03/11 06:04:18;;;;;;;22.60;16.83;;;5.40;64.50;;;;;;5026378;28;20459;-80
2021/03/11 06:06:45;;;;;;;21.57;15.50;;;5.40;64.60;;;;;;5028181;28;20450;-80
2021/03/11 06:09:12;;;;;;;19.83;15.80;;;5.40;64.30;;;;;;5027699;28;20549;-78
2021/03/11 06:11:39;;;;;;;19.80;16.07;;;5.50;63.70;;;;;;5029714;28;20562;-78
2021/03/11 06:14:08;;;;;;;21.70;15.93;;;5.50;63.80;;;;;;5028686;28;20460;-77
2021/03/11 06:16:39;;;;;;;21.90;15.50;;;5.60;63.80;;;;;;5026718;28;20463;-78
2021/03/11 06:19:06;;;;;;;19.70;15.70;;;5.50;63.80;;;;;;5024058;28;20444;-79
2021/03/11 06:21:32;;;;;;;23.27;14.77;;;5.60;63.70;;;;;;5031867;28;20490;-81
2021/03/11 06:23:59;;;;;;;18.57;14.47;;;5.60;63.10;;;;;;5041551;28;21001;-78
2021/03/11 06:26:25;;;;;;;21.00;15.60;;;5.60;63.50;;;;;;5022810;28;20811;-78
2021/03/11 06:28:54;;;;;;;17.03;14.70;;;5.70;63.80;;;;;;5037386;28;20465;-78
2021/03/11 06:31:23;;;;;;;17.97;14.40;;;5.80;64.90;;;;;;5034550;28;20473;-78
2021/03/11 06:33:52;;;;;;;23.40;15.13;;;5.80;64.20;;;;;;5038656;28;20494;-79
2021/03/11 06:36:19;;;;;;;18.70;15.10;;;5.80;64.30;;;;;;5031840;28;20479;-78
2021/03/11 06:38:46;;;;;;;19.43;16.03;;;5.90;63.80;;;;;;5022878;28;20457;-78
2021/03/11 06:41:13;;;;;;;20.53;15.70;;;5.90;63.80;;;;;;5040215;28;20495;-78
2021/03/11 06:44:06;;;;;;;19.60;15.03;;;5.90;64.00;;;;;;5038331;28;20460;-78
2021/03/11 06:46:34;;;;;;;19.17;14.83;;;5.90;63.80;;;;;;4999963;28;20479;-80
2021/03/11 06:49:07;;;;;;;19.20;15.40;;;6.00;63.60;;;;;;5033006;28;20453;-81
2021/03/11 06:51:34;;;;;;;22.30;15.27;;;6.00;63.40;;;;;;5038394;28;20481;-80
2021/03/11 06:54:02;;;;;;;22.20;15.50;;;6.00;63.20;;;;;;5042242;28;20550;-80
2021/03/11 06:56:29;;;;;;;22.43;15.00;;;6.10;63.30;;;;;;5040281;28;20498;-81
2021/03/11 06:59:09;;;;;;;23.80;15.67;;;6.10;63.10;;;;;;5044842;28;20845;-82
2021/03/11 07:01:49;;;;;;;19.43;14.80;;;6.20;63.70;;;;;;5047539;28;20448;-81
2021/03/11 07:04:22;;;;;;;18.50;14.37;;;6.30;63.60;;;;;;5045323;28;21037;-84
2021/03/11 07:06:49;;;;;;;18.50;14.77;;;6.30;62.70;;;;;;5033827;28;20454;-84
2021/03/11 07:09:15;;;;;;;18.80;15.20;;;6.40;63.10;;;;;;5040049;28;20483;-79
2021/03/11 07:11:53;;;;;;;19.53;14.77;;;6.50;62.90;;;;;;5038363;28;20538;-80
2021/03/11 07:14:27;;;;;;;21.53;15.10;;;6.50;63.00;;;;;;5037496;28;21358;-81
2021/03/11 07:16:54;;;;;;;18.53;14.10;;;6.50;63.00;;;;;;5040208;28;20498;-83
2021/03/11 07:19:21;;;;;;;16.70;14.88;;;6.50;62.50;;;;;;5034110;28;20449;-84
2021/03/11 07:21:50;;;;;;;18.23;15.67;;;6.60;62.60;;;;;;5037486;28;20203;-79
2021/03/11 07:24:37;;;;;;;17.43;15.30;;;6.70;62.50;;;;;;5045803;28;20565;-87
2021/03/11 07:27:06;;;;;;;22.60;15.40;;;6.80;62.20;;;;;;5040578;28;20491;-81
2021/03/11 07:29:35;;;;;;;19.10;13.93;;;6.90;62.20;;;;;;5043023;28;20549;-84
2021/03/11 07:32:05;;;;;;;16.70;13.27;;;6.90;61.90;;;;;;5048111;28;20516;-84
2021/03/11 07:34:38;;;;;;;19.60;14.37;;;7.00;62.30;;;;;;5049410;28;20453;-83
2021/03/11 07:37:08;;;;;;;16.63;14.47;;;7.10;62.60;;;;;;5047292;28;20450;-83
2021/03/11 07:39:45;;;;;;;15.30;13.47;;;7.20;62.10;;;;;;5046576;28;20524;-82
2021/03/11 07:42:16;;;;;;;17.67;15.47;;;7.20;62.10;;;;;;5041145;28;20464;-83
2021/03/11 07:44:45;;;;;;;18.73;15.67;;;7.20;62.00;;;;;;5044310;28;20455;-81
2021/03/11 07:47:13;;;;;;;16.80;13.40;;;7.20;62.30;;;;;;5035991;28;20473;-79
2021/03/11 07:49:43;;;;;;;19.37;13.57;;;7.10;62.20;;;;;;5024343;28;20568;-78
2021/03/11 07:52:11;;;;;;;17.97;15.40;;;7.20;62.40;;;;;;5026386;28;20540;-74
2021/03/11 07:54:38;;;;;;;19.23;13.53;;;7.30;61.90;;;;;;5025055;28;20465;-76
2021/03/11 07:57:06;;;;;;;15.67;14.03;;;7.40;62.10;;;;;;5024345;28;20449;-75
2021/03/11 07:59:34;;;;;;;18.20;14.50;;;7.50;62.10;;;;;;5029144;28;20474;-75
2021/03/11 08:02:06;;;;;;;16.47;13.67;;;7.50;61.90;;;;;;5018969;28;20455;-76
2021/03/11 08:04:40;;;;;;;15.40;13.40;;;7.60;61.80;;;;;;5029313;28;20888;-74
2021/03/11 08:07:21;;;;;;;20.33;14.93;;;7.70;61.80;;;;;;5026505;28;20833;-75
2021/03/11 08:09:49;;;;;;;17.03;14.30;;;7.70;61.70;;;;;;5031330;28;20460;-76
2021/03/11 08:12:37;;;;;;;17.03;13.37;;;7.70;61.50;;;;;;5023226;28;20458;-75
2021/03/11 08:15:06;;;;;;;18.10;14.40;;;7.80;61.70;;;;;;5031567;28;20484;-73
2021/03/11 08:17:41;;;;;;;19.93;14.30;;;7.90;61.20;;;;;;5027984;28;20454;-73
2021/03/11 08:20:39;;;;;;;23.53;15.83;;;8.10;61.40;;;;;;5024485;28;20463;-73
2021/03/11 08:23:06;;;;;;;15.30;12.67;;;8.20;62.00;;;;;;5020251;28;20499;-75
2021/03/11 08:25:47;;;;;;;18.27;14.47;;;8.30;61.30;;;;;;5022938;28;20446;-71
2021/03/11 08:28:41;;;;;;;15.80;13.30;;;8.40;61.00;;;;;;5024133;28;20439;-74
2021/03/11 08:31:09;;;;;;;15.53;12.13;;;8.50;61.20;;;;;;5025148;28;21115;-72
2021/03/11 08:33:57;;;;;;;15.60;11.63;;;8.50;60.70;;;;;;5024239;28;20468;-74
2021/03/11 08:36:46;;;;;;;14.93;12.10;;;8.60;60.20;;;;;;5030318;28;20468;-75
2021/03/11 08:39:32;;;;;;;15.57;12.47;;;8.80;60.40;;;;;;5038954;28;20475;-77
2021/03/11 08:42:00;;;;;;;15.33;13.70;;;8.90;60.00;;;;;;5036059;28;20545;-75
2021/03/11 08:44:46;;;;;;;13.90;12.50;;;8.90;59.90;;;;;;5030493;28;20460;-74
2021/03/11 08:47:13;;;;;;;18.33;13.10;;;8.90;59.80;;;;;;5034014;28;20485;-74
2021/03/11 08:49:44;;;;;;;13.83;12.30;;;9.10;59.40;;;;;;5028890;28;20545;-77
2021/03/11 08:52:40;;;;;;;15.43;12.50;;;9.20;59.20;;;;;;5021844;28;20949;-77
2021/03/11 08:55:36;;;;;;;17.00;12.03;;;9.30;59.20;;;;;;5026804;28;20469;-75
2021/03/11 08:58:04;;;;;;;13.40;12.00;;;9.30;59.30;;;;;;5030104;28;20464;-76
2021/03/11 09:00:53;;;;;;;14.20;12.20;;;9.30;59.40;;;;;;5029005;28;20458;-75
2021/03/11 09:03:43;;;;;;;17.10;12.10;;;9.40;59.70;;;;;;5028860;28;20457;-75
2021/03/11 09:06:11;;;;;;;16.23;11.40;;;9.40;59.60;;;;;;5042432;28;20468;-77
2021/03/11 09:08:48;;;;;;;16.42;14.73;;;9.30;59.60;;;;;;5044618;28;20445;-75
2021/03/11 09:11:16;;;;;;;15.40;11.90;;;9.30;60.10;;;;;;5037052;28;20268;-75
2021/03/11 09:13:43;;;;;;;13.00;11.47;;;9.30;60.30;;;;;;5026327;28;20520;-73
2021/03/11 09:16:10;;;;;;;12.40;10.93;;;9.40;60.30;;;;;;5028810;28;20437;-72
2021/03/11 09:18:37;;;;;;;13.23;10.20;;;9.40;60.30;;;;;;5031899;28;20231;-73
2021/03/11 09:21:12;;;;;;;15.10;11.60;;;9.50;60.20;;;;;;5052214;28;20464;-82
2021/03/11 09:23:43;;;;;;;13.00;11.53;;;9.60;60.50;;;;;;5049680;28;20219;-74
2021/03/11 09:26:25;;;;;;;13.70;12.30;;;9.60;60.20;;;;;;5033106;28;20453;-74
2021/03/11 09:28:51;;;;;;;14.20;11.47;;;9.80;60.30;;;;;;5032027;28;20476;-74
2021/03/11 09:31:23;;;;;;;14.47;10.27;;;9.90;60.00;;;;;;5029866;28;20454;-75
2021/03/11 09:33:50;;;;;;;19.37;12.93;;;9.90;60.00;;;;;;5023648;28;20981;-74
2021/03/11 09:36:22;;;;;;;15.90;12.10;;;10.00;59.40;;;;;;5039896;28;20509;-82
2021/03/11 10:39:10;;;;;;;7.55;6.85;;;13.70;57.30;;;;;;5034961;28;20495;-77
2021/03/11 10:41:40;;;;;;;17.00;7.07;;;13.50;56.70;;;;;;5037278;28;20205;-77
2021/03/11 10:44:17;;;;;;;9.53;6.80;;;13.30;56.80;;;;;;5032892;28;20450;-76
2021/03/11 10:46:44;;;;;;;9.27;7.10;;;13.10;57.00;;;;;;5027177;28;20538;-76
2021/03/11 10:49:14;;;;;;;40.60;37.17;;;13.00;57.30;;;;;;5029779;28;20556;-75
2021/03/11 10:51:42;;;;;;;19.13;8.43;;;12.90;57.40;;;;;;5028645;28;21304;-74
2021/03/11 10:54:27;;;;;;;7.53;6.57;;;12.80;57.60;;;;;;5028548;28;21172;-75
2021/03/11 10:57:11;;;;;;;9.93;7.07;;;12.60;57.60;;;;;;5022645;28;21118;-71
2021/03/11 10:59:53;;;;;;;26.67;7.67;;;12.50;57.90;;;;;;5023864;28;20522;-73
2021/03/11 11:02:21;;;;;;;21.52;6.95;;;12.30;57.80;;;;;;5018401;28;20453;-73
2021/03/11 11:04:48;;;;;;;14.77;6.80;;;12.20;58.20;;;;;;5025428;28;20298;-73
2021/03/11 11:07:17;;;;;;;9.30;5.73;;;12.10;58.50;;;;;;5026755;28;20485;-73
2021/03/11 11:09:44;;;;;;;11.40;6.17;;;12.10;58.30;;;;;;5024802;28;20486;-73
2021/03/11 11:12:13;;;;;;;9.20;5.90;;;12.20;58.70;;;;;;5023932;28;20448;-72
2021/03/11 11:14:40;;;;;;;7.93;6.30;;;12.20;58.70;;;;;;5028798;28;20453;-72
2021/03/11 11:17:08;;;;;;;14.40;6.63;;;12.20;58.70;;;;;;5023397;28;20482;-72
2021/03/11 11:19:34;;;;;;;8.63;5.77;;;12.20;58.80;;;;;;5022449;28;20530;-75
2021/03/11 11:22:01;;;;;;;11.65;6.30;;;12.10;58.90;;;;;;5018917;28;20988;-74
2021/03/11 11:24:28;;;;;;;7.70;5.77;;;12.10;59.00;;;;;;5029406;28;20264;-75
2021/03/11 11:26:55;;;;;;;7.68;6.20;;;12.20;59.50;;;;;;5021978;28;20500;-73
2021/03/11 11:29:21;;;;;;;9.27;6.97;;;12.20;59.50;;;;;;5024203;28;20837;-75
2021/03/11 11:31:48;;;;;;;7.00;6.30;;;12.20;59.80;;;;;;5018997;28;20454;-74
2021/03/11 11:34:15;;;;;;;11.73;6.17;;;12.30;59.60;;;;;;5021826;28;21002;-74
2021/03/11 11:36:42;;;;;;;6.63;6.00;;;12.30;59.80;;;;;;5021895;28;20469;-74
2021/03/11 11:39:09;;;;;;;7.47;5.97;;;12.50;59.70;;;;;;5026855;28;20454;-74
2021/03/11 11:41:38;;;;;;;11.90;6.30;;;12.50;59.60;;;;;;5025692;28;21021;-73
2021/03/11 11:44:05;;;;;;;12.00;5.50;;;12.70;59.40;;;;;;5023364;28;20450;-76
2021/03/11 11:46:31;;;;;;;4.87;4.40;;;12.70;59.40;;;;;;5025279;28;20449;-73
2021/03/11 11:48:58;;;;;;;5.17;4.23;;;12.70;59.70;;;;;;5023059;28;20951;-79
2021/03/11 11:51:26;;;;;;;4.27;3.00;;;12.80;59.80;;;;;;5039770;28;20495;-80
2021/03/11 11:53:53;;;;;;;8.37;3.17;;;12.80;60.00;;;;;;5041824;28;20462;-79
2021/03/11 11:56:20;;;;;;;4.70;2.40;;;12.90;60.30;;;;;;5051015;28;20457;-79
2021/03/11 11:58:47;;;;;;;2.30;2.10;;;12.90;60.60;;;;;;5043215;28;20465;-80
2021/03/11 12:01:17;;;;;;;2.30;2.10;;;12.80;60.60;;;;;;5038379;28;20526;-80
2021/03/11 12:03:44;;;;;;;3.13;1.67;;;12.90;61.00;;;;;;5037592;28;20531;-81
2021/03/11 12:06:11;;;;;;;2.70;1.93;;;12.80;61.30;;;;;;5043808;28;20464;-78
2021/03/11 12:08:39;;;;;;;4.23;1.70;;;12.90;61.60;;;;;;5048841;28;20555;-78
2021/03/11 12:11:06;;;;;;;1.70;1.60;;;12.80;61.90;;;;;;5039699;28;20496;-79
2021/03/11 12:13:34;;;;;;;2.63;2.33;;;12.90;62.10;;;;;;5039859;28;20524;-78
2021/03/11 12:16:01;;;;;;;2.57;1.90;;;12.80;62.00;;;;;;5043318;28;20569;-79
2021/03/11 12:18:27;;;;;;;6.07;2.10;;;12.70;62.80;;;;;;5036811;28;20462;-79
2021/03/11 12:20:54;;;;;;;4.07;2.50;;;12.80;63.30;;;;;;5045113;28;20461;-79
2021/03/11 12:23:20;;;;;;;2.07;1.87;;;12.80;63.10;;;;;;5046654;28;20483;-80
2021/03/11 12:25:50;;;;;;;4.67;2.00;;;12.80;63.20;;;;;;5041901;28;20446;-80
2021/03/11 12:28:16;;;;;;;2.07;1.97;;;12.80;63.30;;;;;;5034058;28;20451;-79
2021/03/11 12:30:43;;;;;;;1.70;1.60;;;12.90;63.10;;;;;;5038648;28;20474;-78
2021/03/11 12:33:10;;;;;;;1.73;1.60;;;12.90;63.30;;;;;;5048693;28;20463;-80
2021/03/11 12:35:39;;;;;;;2.90;2.40;;;12.90;63.30;;;;;;5048976;28;20469;-80
2021/03/11 12:38:06;;;;;;;2.57;2.37;;;13.00;63.50;;;;;;5046161;28;20458;-78
2021/03/11 12:40:33;;;;;;;1.70;1.60;;;12.80;63.30;;;;;;5044745;28;20475;-79
2021/03/11 12:43:00;;;;;;;2.07;1.90;;;12.70;63.80;;;;;;5047488;28;21136;-79
2021/03/11 12:45:27;;;;;;;2.07;1.83;;;12.80;63.90;;;;;;5041074;28;20446;-80
2021/03/11 12:47:54;;;;;;;2.33;1.67;;;12.80;63.70;;;;;;5040418;28;20459;-78
2021/03/11 12:50:21;;;;;;;2.53;2.07;;;13.10;64.00;;;;;;5047837;28;20458;-79
2021/03/11 12:52:48;;;;;;;2.00;1.80;;;13.20;63.60;;;;;;5042806;28;20462;-79
2021/03/11 12:55:15;;;;;;;1.57;1.47;;;13.30;63.60;;;;;;5042487;28;20490;-79
2021/03/11 12:57:42;;;;;;;2.47;1.77;;;13.20;63.60;;;;;;5043588;28;20577;-79
2021/03/11 13:00:12;;;;;;;1.53;1.30;;;13.20;63.90;;;;;;5040235;28;20474;-79
2021/03/11 13:02:38;;;;;;;6.47;1.30;;;13.20;63.60;;;;;;5039616;28;20549;-78
2021/03/11 13:05:07;;;;;;;1.40;1.30;;;13.30;63.90;;;;;;5037554;28;20563;-80
2021/03/11 13:07:48;;;;;;;1.80;1.47;;;13.70;63.90;;;;;;5037326;28;21402;-78
2021/03/11 13:10:15;;;;;;;2.50;1.70;;;13.90;63.40;;;;;;5039159;28;20487;-73
2021/03/11 13:12:42;;;;;;;7.03;1.60;;;14.10;63.30;;;;;;5023426;28;20445;-72
2021/03/11 13:15:11;;;;;;;1.60;1.40;;;14.30;63.00;;;;;;5023910;28;20452;-72
2021/03/11 13:17:38;;;;;;;1.23;1.10;;;14.10;63.30;;;;;;5019485;28;20526;-73
2021/03/11 13:20:06;;;;;;;2.50;1.27;;;14.00;63.50;;;;;;5025163;28;20984;-72
2021/03/11 13:22:33;;;;;;;1.97;1.50;;;14.10;63.70;;;;;;5020758;28;20504;-73
2021/03/11 13:25:00;;;;;;;2.63;1.47;;;14.20;63.60;;;;;;5027052;28;20455;-72
2021/03/11 13:27:26;;;;;;;3.00;1.50;;;14.00;63.80;;;;;;5025629;28;20559;-73
2021/03/11 13:29:52;;;;;;;2.43;1.67;;;13.90;63.80;;;;;;5025818;28;20485;-74
2021/03/11 13:32:20;;;;;;;2.10;1.40;;;13.70;64.20;;;;;;5025177;28;20453;-73
2021/03/11 13:34:47;;;;;;;5.83;1.57;;;13.60;64.40;;;;;;5026064;28;20458;-71
2021/03/11 13:37:13;;;;;;;2.15;1.10;;;13.60;64.50;;;;;;5026255;28;20453;-78
2021/03/11 13:39:40;;;;;;;2.50;1.50;;;13.40;64.70;;;;;;5025565;28;20227;-72
2021/03/11 13:42:07;;;;;;;4.30;1.60;;;13.40;64.70;;;;;;5016270;28;20460;-75
2021/03/11 13:44:34;;;;;;;2.67;1.73;;;13.20;64.80;;;;;;5030043;28;20459;-73
2021/03/11 13:47:00;;;;;;;1.83;1.40;;;13.20;65.30;;;;;;5024266;28;20477;-72
2021/03/11 13:49:27;;;;;;;2.03;1.50;;;13.10;65.30;;;;;;5034919;28;21243;-72
2021/03/11 13:51:54;;;;;;;4.67;1.23;;;13.10;65.30;;;;;;5031623;28;20545;-75